Home > Products > Valid Products > TAF

000
FTUS43 KGRB 211500 AAB
TAFGRB
TAF AMD
KGRB 211509Z 2115/2212 36013G20KT P6SM SCT015 BKN030
     FM211800 36015G22KT P6SM SCT030
     FM212300 36006KT P6SM SKC=



000
FTUS43 KGRB 211500 AAB
TAFGRB
TAF AMD
KGRB 211509Z 2115/2212 36013G20KT P6SM SCT015 BKN030
     FM211800 36015G22KT P6SM SCT030
     FM212300 36006KT P6SM SKC=



000
FTUS43 KGRB 211500 AAA
TAFGRB
TAF AMD
KGRB 211502Z 2115/2212 36013G20KT P6SM BKN030
     FM211800 36015G22KT P6SM SCT035
     FM212300 36006KT P6SM SKC=



000
FTUS43 KGRB 211500 AAA
TAFGRB
TAF AMD
KGRB 211502Z 2115/2212 36013G20KT P6SM BKN030
     FM211800 36015G22KT P6SM SCT035
     FM212300 36006KT P6SM SKC=



000
FTUS43 KGRB 211100
TAFGRB
TAF
KGRB 211134Z 2112/2212 36010KT P6SM SCT015 BKN035
      TEMPO 2112/2114 -SHRA BKN015
     FM211400 36012G18KT P6SM BKN030
     FM211800 36015G22KT P6SM SCT035
     FM212300 36006KT P6SM SKC=



000
FTUS43 KGRB 211100
TAFGRB
TAF
KGRB 211134Z 2112/2212 36010KT P6SM SCT015 BKN035
      TEMPO 2112/2114 -SHRA BKN015
     FM211400 36012G18KT P6SM BKN030
     FM211800 36015G22KT P6SM SCT035
     FM212300 36006KT P6SM SKC=



000
FTUS43 KGRB 211000 AAB
TAFGRB
TAF AMD
KGRB 211034Z 2111/2206 28009KT P6SM -SHRA SCT015 BKN025
      TEMPO 2111/2114 BKN015
     FM211400 36010KT P6SM BKN015 BKN035
     FM211600 36012G18KT P6SM BKN030
     FM211800 36012G18KT P6SM SCT035
     FM212300 36006KT P6SM SKC=



000
FTUS43 KGRB 211000 AAB
TAFGRB
TAF AMD
KGRB 211034Z 2111/2206 28009KT P6SM -SHRA SCT015 BKN025
      TEMPO 2111/2114 BKN015
     FM211400 36010KT P6SM BKN015 BKN035
     FM211600 36012G18KT P6SM BKN030
     FM211800 36012G18KT P6SM SCT035
     FM212300 36006KT P6SM SKC=



000
FTUS43 KGRB 210600 AAA
TAFGRB
TAF AMD
KGRB 210651Z 2107/2206 30005KT P6SM SCT015 BKN040
     FM210900 VRB03KT 5SM -SHRA BR OVC015
     FM211400 36010G20KT P6SM BKN015 BKN035
     FM211600 36012G18KT P6SM BKN030
     FM211800 36012G18KT P6SM SCT035
     FM212300 36006KT P6SM SKC=



000
FTUS43 KGRB 210500
TAFGRB
TAF
KGRB 210520Z 2106/2206 03007KT P6SM SCT035 OVC080
     FM210800 36009KT 6SM -RA BR SCT015 OVC025
      TEMPO 2109/2113 3SM RA BR BKN008 OVC015
     FM211400 36013G20KT P6SM BKN015 BKN035
     FM211800 36012G18KT P6SM BKN030
     FM212000 36012G18KT P6SM SCT035
     FM212300 36006KT P6SM SKC=



000
FTUS43 KGRB 210500
TAFGRB
TAF
KGRB 210520Z 2106/2206 03007KT P6SM SCT035 OVC080
     FM210800 36009KT 6SM -RA BR SCT015 OVC025
      TEMPO 2109/2113 3SM RA BR BKN008 OVC015
     FM211400 36013G20KT P6SM BKN015 BKN035
     FM211800 36012G18KT P6SM BKN030
     FM212000 36012G18KT P6SM SCT035
     FM212300 36006KT P6SM SKC=



000
FTUS43 KGRB 210300 AAA
TAFGRB
TAF AMD
KGRB 210313Z 2103/2124 VRB03KT P6SM SCT050 BKN140
     FM210400 03007KT 6SM -SHRA BR SCT035 OVC070
      TEMPO 2104/2106 28020G35KT 3SM TSRA OVC030CB
     FM210800 36009KT 5SM -RA BR SCT015 OVC025
      TEMPO 2109/2113 3SM RA BR BKN008 OVC015
     FM211400 36013G20KT P6SM BKN020
     FM211800 36012G18KT P6SM SCT035
     FM212300 03007KT P6SM SKC=



000
FTUS43 KGRB 210300 AAA
TAFGRB
TAF AMD
KGRB 210313Z 2103/2124 VRB03KT P6SM SCT050 BKN140
     FM210400 03007KT 6SM -SHRA BR SCT035 OVC070
      TEMPO 2104/2106 28020G35KT 3SM TSRA OVC030CB
     FM210800 36009KT 5SM -RA BR SCT015 OVC025
      TEMPO 2109/2113 3SM RA BR BKN008 OVC015
     FM211400 36013G20KT P6SM BKN020
     FM211800 36012G18KT P6SM SCT035
     FM212300 03007KT P6SM SKC=



000
FTUS43 KGRB 202300
TAFGRB
TAF
KGRB 202339Z 2100/2124 27006KT P6SM SCT050 BKN250
     FM210200 VRB03KT P6SM SCT050 BKN140
     FM210500 03007KT 6SM -SHRA BR SCT035 OVC070
      TEMPO 2105/2107 3SM TSRA OVC030CB
     FM210800 36009KT 5SM -RA BR SCT015 OVC025
      TEMPO 2109/2113 3SM RA BR BKN008 OVC015
     FM211400 36013G20KT P6SM BKN020
     FM211800 36012G18KT P6SM SCT035
     FM212300 03007KT P6SM SKC=



000
FTUS43 KGRB 202300
TAFGRB
TAF
KGRB 202339Z 2100/2124 27006KT P6SM SCT050 BKN250
     FM210200 VRB03KT P6SM SCT050 BKN140
     FM210500 03007KT 6SM -SHRA BR SCT035 OVC070
      TEMPO 2105/2107 3SM TSRA OVC030CB
     FM210800 36009KT 5SM -RA BR SCT015 OVC025
      TEMPO 2109/2113 3SM RA BR BKN008 OVC015
     FM211400 36013G20KT P6SM BKN020
     FM211800 36012G18KT P6SM SCT035
     FM212300 03007KT P6SM SKC=



000
FTUS43 KGRB 202000 AAA
TAFGRB
TAF AMD
KGRB 202055Z 2021/2118 24011G18KT P6SM SCT030
     FM202200 27011G18KT P6SM BKN040
     FM210000 29007KT P6SM SCT040 BKN250
     FM210200 28003KT P6SM VCSH BKN035
     FM210700 35006KT 5SM -SHRA BR SCT012 OVC020
      TEMPO 2108/2112 3SM SHRA OVC012
     FM211500 36011KT P6SM VCSH BKN020=



000
FTUS43 KGRB 202000 AAA
TAFGRB
TAF AMD
KGRB 202055Z 2021/2118 24011G18KT P6SM SCT030
     FM202200 27011G18KT P6SM BKN040
     FM210000 29007KT P6SM SCT040 BKN250
     FM210200 28003KT P6SM VCSH BKN035
     FM210700 35006KT 5SM -SHRA BR SCT012 OVC020
      TEMPO 2108/2112 3SM SHRA OVC012
     FM211500 36011KT P6SM VCSH BKN020=



000
FTUS43 KGRB 201700
TAFGRB
TAF
KGRB 201735Z 2018/2118 25012G20KT P6SM VCSH BKN020
     FM202000 27011G18KT P6SM BKN030
     FM202200 29007KT P6SM SCT030 BKN250
     FM210200 28003KT P6SM VCSH BKN035
     FM210700 35006KT 5SM -SHRA BR SCT012 OVC020
      TEMPO 2108/2112 3SM SHRA OVC012
     FM211500 36011KT P6SM VCSH BKN020=



000
FTUS43 KGRB 201100
TAFGRB
TAF
KGRB 201135Z 2012/2112 21010KT P6SM SCT070 BKN100 WS015/25040KT
     FM201500 24010G16KT P6SM VCSH SCT030 BKN100
     FM201900 26011G18KT P6SM SCT035 SCT100
     FM202300 29004KT P6SM SCT100 BKN250
     FM210700 35006KT 5SM -SHRA BR SCT009 OVC015
      TEMPO 2108/2112 3SM SHRA OVC009=



000
FTUS43 KGRB 201100
TAFGRB
TAF
KGRB 201135Z 2012/2112 21010KT P6SM SCT070 BKN100 WS015/25040KT
     FM201500 24010G16KT P6SM VCSH SCT030 BKN100
     FM201900 26011G18KT P6SM SCT035 SCT100
     FM202300 29004KT P6SM SCT100 BKN250
     FM210700 35006KT 5SM -SHRA BR SCT009 OVC015
      TEMPO 2108/2112 3SM SHRA OVC009=



000
FTUS43 KGRB 200700 AAA
TAFGRB
TAF AMD
KGRB 200746Z 2008/2106 23012G18KT P6SM SCT025 BKN040 WS015/25040KT
      TEMPO 2008/2010 3SM TSRA BR BKN025CB
     FM201400 24011G18KT P6SM SCT015 BKN100
     FM201900 28011G18KT P6SM SCT030 SCT100=



000
FTUS43 KGRB 200700 AAA
TAFGRB
TAF AMD
KGRB 200746Z 2008/2106 23012G18KT P6SM SCT025 BKN040 WS015/25040KT
      TEMPO 2008/2010 3SM TSRA BR BKN025CB
     FM201400 24011G18KT P6SM SCT015 BKN100
     FM201900 28011G18KT P6SM SCT030 SCT100=



000
FTUS43 KGRB 200500
TAFGRB
TAF
KGRB 200520Z 2006/2106 21009G15KT P6SM SCT035 BKN070 WS012/24040KT
      TEMPO 2008/2012 4SM SHRA SCT020 OVC035
     FM201200 23008G15KT P6SM BKN015 BKN080
      TEMPO 2012/2015 4SM BR OVC010
     FM201600 24010G17KT P6SM SCT015 BKN100 PROB30 2017/2019 4SM
      TSRA BKN020CB
     FM201900 27010G17KT P6SM SCT030 SCT100
     FM210000 25006KT P6SM SCT040 BKN070
      TEMPO 2104/2106 5SM -SHRA BR OVC035=



000
FTUS43 KGRB 200500
TAFGRB
TAF
KGRB 200520Z 2006/2106 21009G15KT P6SM SCT035 BKN070 WS012/24040KT
      TEMPO 2008/2012 4SM SHRA SCT020 OVC035
     FM201200 23008G15KT P6SM BKN015 BKN080
      TEMPO 2012/2015 4SM BR OVC010
     FM201600 24010G17KT P6SM SCT015 BKN100 PROB30 2017/2019 4SM
      TSRA BKN020CB
     FM201900 27010G17KT P6SM SCT030 SCT100
     FM210000 25006KT P6SM SCT040 BKN070
      TEMPO 2104/2106 5SM -SHRA BR OVC035=



000
FTUS43 KGRB 200500 AAA
TAFGRB
TAF AMD
KGRB 200519Z 2005/2024 21009G15KT P6SM SCT035 BKN070 WS012/23040KT
     FM200900 23010G17KT P6SM SCT015 BKN080 WS015/25040KT
      TEMPO 2010/2014 4SM SHRA BR BKN015
     FM201400 24010G17KT P6SM SCT015 BKN100
     FM201900 28010G17KT P6SM SCT030 SCT100=



000
FTUS43 KGRB 200500 AAA
TAFGRB
TAF AMD
KGRB 200519Z 2005/2024 21009G15KT P6SM SCT035 BKN070 WS012/23040KT
     FM200900 23010G17KT P6SM SCT015 BKN080 WS015/25040KT
      TEMPO 2010/2014 4SM SHRA BR BKN015
     FM201400 24010G17KT P6SM SCT015 BKN100
     FM201900 28010G17KT P6SM SCT030 SCT100=



000
FTUS43 KGRB 192300 RRA
TAFGRB
TAF
KGRB 192343Z 2000/2024 19012G20KT P6SM SCT070 BKN150 WS012/20040KT
     FM200400 21009G15KT P6SM SCT035 BKN070 WS012/23040KT
      TEMPO 2005/2007 4SM SHRA OVC035
     FM200900 23010G17KT P6SM SCT015 BKN080 WS015/25040KT
      TEMPO 2010/2014 4SM SHRA BR BKN015
     FM201400 24010G17KT P6SM SCT015 BKN100
     FM201900 28010G17KT P6SM SCT030 SCT100=



000
FTUS43 KGRB 192300 RRA
TAFGRB
TAF
KGRB 192343Z 2000/2024 19012G20KT P6SM SCT070 BKN150 WS012/20040KT
     FM200400 21009G15KT P6SM SCT035 BKN070 WS012/23040KT
      TEMPO 2005/2007 4SM SHRA OVC035
     FM200900 23010G17KT P6SM SCT015 BKN080 WS015/25040KT
      TEMPO 2010/2014 4SM SHRA BR BKN015
     FM201400 24010G17KT P6SM SCT015 BKN100
     FM201900 28010G17KT P6SM SCT030 SCT100=



000
FTUS43 KGRB 191700
TAFGRB
TAF
KGRB 191724Z 1918/2018 19015G22KT P6SM SCT120 BKN250
     FM200000 20010KT P6SM BKN100 BKN250 WS015/20040KT
     FM200600 21008KT 6SM BR BKN035 BKN080 WS010/22040KT
      TEMPO 2007/2009 3SM SHRA OVC035
     FM200900 23010KT 6SM BR OVC015 WS015/23035KT
     FM201500 26010G16KT P6SM SCT020 BKN150=



000
FTUS43 KGRB 191700
TAFGRB
TAF
KGRB 191724Z 1918/2018 19015G22KT P6SM SCT120 BKN250
     FM200000 20010KT P6SM BKN100 BKN250 WS015/20040KT
     FM200600 21008KT 6SM BR BKN035 BKN080 WS010/22040KT
      TEMPO 2007/2009 3SM SHRA OVC035
     FM200900 23010KT 6SM BR OVC015 WS015/23035KT
     FM201500 26010G16KT P6SM SCT020 BKN150=



000
FTUS43 KGRB 191500 AAA
TAFGRB
TAF AMD
KGRB 191502Z 1915/2012 19012G20KT P6SM SCT008 SCT250
     FM191600 19014G22KT P6SM BKN250
     FM200000 19009KT P6SM BKN100 BKN250
     FM200600 21008KT 5SM BR SCT045 BKN100
      TEMPO 2009/2012 3SM -TSRA OVC035CB=



000
FTUS43 KGRB 191500 AAA
TAFGRB
TAF AMD
KGRB 191502Z 1915/2012 19012G20KT P6SM SCT008 SCT250
     FM191600 19014G22KT P6SM BKN250
     FM200000 19009KT P6SM BKN100 BKN250
     FM200600 21008KT 5SM BR SCT045 BKN100
      TEMPO 2009/2012 3SM -TSRA OVC035CB=



000
FTUS43 KGRB 191100
TAFGRB
TAF
KGRB 191133Z 1912/2012 16006KT 2SM BR OVC003
      TEMPO 1912/1914 1SM BR OVC002
     FM191400 19009KT 5SM BR SCT003 BKN008
     FM191600 20015G25KT P6SM SCT050 BKN250
     FM200000 19009KT P6SM BKN100 BKN250
     FM200600 21008KT 5SM BR SCT045 BKN100
      TEMPO 2009/2012 3SM -TSRA OVC035CB=



000
FTUS43 KGRB 191100
TAFGRB
TAF
KGRB 191133Z 1912/2012 16006KT 2SM BR OVC003
      TEMPO 1912/1914 1SM BR OVC002
     FM191400 19009KT 5SM BR SCT003 BKN008
     FM191600 20015G25KT P6SM SCT050 BKN250
     FM200000 19009KT P6SM BKN100 BKN250
     FM200600 21008KT 5SM BR SCT045 BKN100
      TEMPO 2009/2012 3SM -TSRA OVC035CB=



000
FTUS43 KGRB 191000 AAB
TAFGRB
TAF AMD
KGRB 191045Z 1911/2006 18005KT 3SM BR OVC003
      TEMPO 1911/1913 1 1/2SM BR SCT003 OVC008
     FM191500 20012G20KT P6SM SCT100 BKN250
     FM200000 19009KT P6SM BKN100 BKN250=



000
FTUS43 KGRB 191000 AAB
TAFGRB
TAF AMD
KGRB 191045Z 1911/2006 18005KT 3SM BR OVC003
      TEMPO 1911/1913 1 1/2SM BR SCT003 OVC008
     FM191500 20012G20KT P6SM SCT100 BKN250
     FM200000 19009KT P6SM BKN100 BKN250=



000
FTUS43 KGRB 190900 AAA
TAFGRB
TAF AMD
KGRB 190922Z 1909/2006 15003KT 6SM BR OVC010
     FM191500 20012G20KT P6SM SCT100 BKN250
     FM200000 19009KT P6SM BKN100 BKN250=



000
FTUS43 KGRB 190900 AAA
TAFGRB
TAF AMD
KGRB 190922Z 1909/2006 15003KT 6SM BR OVC010
     FM191500 20012G20KT P6SM SCT100 BKN250
     FM200000 19009KT P6SM BKN100 BKN250=



000
FTUS43 KGRB 190500
TAFGRB
TAF
KGRB 190528Z 1906/2006 14004KT 5SM BR SCT008 SCT200
      TEMPO 1908/1910 1SM BR BKN008
     FM191500 20012G20KT P6SM SCT100 BKN250
     FM200000 19009KT P6SM BKN100 BKN250=



000
FTUS43 KGRB 190500
TAFGRB
TAF
KGRB 190528Z 1906/2006 14004KT 5SM BR SCT008 SCT200
      TEMPO 1908/1910 1SM BR BKN008
     FM191500 20012G20KT P6SM SCT100 BKN250
     FM200000 19009KT P6SM BKN100 BKN250=



000
FTUS43 KGRB 190400 AAA
TAFGRB
TAF AMD
KGRB 190411Z 1904/1924 09004KT 5SM BR SCT200
      TEMPO 1904/1908 1SM BR SCT006
     FM190800 17004KT 1SM BR SCT006
     FM191500 20012G20KT P6SM SCT100 BKN250=



000
FTUS43 KGRB 190400 AAA
TAFGRB
TAF AMD
KGRB 190411Z 1904/1924 09004KT 5SM BR SCT200
      TEMPO 1904/1908 1SM BR SCT006
     FM190800 17004KT 1SM BR SCT006
     FM191500 20012G20KT P6SM SCT100 BKN250=



000
FTUS43 KGRB 182300
TAFGRB
TAF
KGRB 182337Z 1900/1924 09004KT P6SM SCT025 SCT200
      TEMPO 1900/1904 BKN022
     FM190700 17004KT P6SM FEW025 SCT200
     FM191500 20012G20KT P6SM SCT100 BKN250=



000
FTUS43 KGRB 182300
TAFGRB
TAF
KGRB 182337Z 1900/1924 09004KT P6SM SCT025 SCT200
      TEMPO 1900/1904 BKN022
     FM190700 17004KT P6SM FEW025 SCT200
     FM191500 20012G20KT P6SM SCT100 BKN250=



000
FTUS43 KGRB 182000 AAA
TAFGRB
TAF AMD
KGRB 182037Z 1821/1918 06007KT P6SM BKN025
     FM182200 09004KT P6SM SCT025
     FM190700 17004KT P6SM SCT025
     FM191500 20012G20KT P6SM BKN250=



000
FTUS43 KGRB 182000 AAA
TAFGRB
TAF AMD
KGRB 182037Z 1821/1918 06007KT P6SM BKN025
     FM182200 09004KT P6SM SCT025
     FM190700 17004KT P6SM SCT025
     FM191500 20012G20KT P6SM BKN250=



000
FTUS43 KGRB 181700
TAFGRB
TAF
KGRB 181723Z 1818/1918 06007KT P6SM BKN025
     FM190000 12004KT P6SM BKN025
     FM190700 17004KT P6SM SCT025
     FM191500 20012G20KT P6SM BKN250=



000
FTUS43 KGRB 181700
TAFGRB
TAF
KGRB 181723Z 1818/1918 06007KT P6SM BKN025
     FM190000 12004KT P6SM BKN025
     FM190700 17004KT P6SM SCT025
     FM191500 20012G20KT P6SM BKN250=



    US Dept of Commerce
    National Oceanic and Atmospheric Administration
    National Weather Service
    1325 East West Highway
    Silver Spring, MD 20910
    Page Author: NWS Internet Services Team
Disclaimer
Information Quality
Credits
Glossary
Privacy Policy
Freedom of Information Act (FOIA)
About Us
Career Opportunities